Time;durP1;ratioP1;P1;durP2;ratioP2;P2;SDS_P1;SDS_P2;PMS_P1;PMS_P2;Temp;Humidity;BMP_temperature;BMP_pressure;BME280_temperature;BME280_humidity;BME280_pressure;Samples;Min_cycle;Max_cycle;Signal;HPM_P1;HPM_P2
2021/06/12 01:43:13;;;;;;;10.23;8.80;;;;;;;;;;728279;23;20748;-98
2021/06/12 01:45:43;;;;;;;12.20;9.37;;;;;;;;;;4973535;28;20513;-96
2021/06/12 01:48:10;;;;;;;10.23;7.90;;;;;;;;;;4966264;28;20534;-96
2021/06/12 01:50:37;;;;;;;13.00;9.00;;;;;;;;;;4972355;29;20530;-96
2021/06/12 01:53:07;;;;;;;11.27;9.07;;;;;;;;;;4973275;28;20531;-96
2021/06/12 01:55:52;;;;;;;11.57;10.00;;;;;;;;;;4958798;29;20482;-96
2021/06/12 01:58:21;;;;;;;9.80;8.80;;;;;;;;;;4970070;28;20450;-96
2021/06/12 02:01:03;;;;;;;12.57;9.00;;;;;;;;;;4974066;29;20485;-96
2021/06/12 02:03:32;;;;;;;9.87;8.87;;;;;;;;;;4955562;29;20446;-97
2021/06/12 02:08:48;;;;;;;9.07;8.17;;;;;;;;;;4969759;28;20455;-96
2021/06/12 02:11:17;;;;;;;10.50;9.10;;;;;;;;;;4963455;29;20489;-96
2021/06/12 02:13:43;;;;;;;10.27;9.17;;;;;;;;;;4972168;28;20458;-96
2021/06/12 02:16:14;;;;;;;9.77;8.77;;;;;;;;;;4969993;29;20459;-96
2021/06/12 02:18:42;;;;;;;13.47;8.87;;;;;;;;;;4956458;28;20455;-96
2021/06/12 02:27:30;;;;;;;10.87;9.33;;;;;;;;;;4979362;28;20458;-96
2021/06/12 02:32:46;;;;;;;11.80;10.03;;;;;;;;;;5676847;23;20497;-96
2021/06/12 02:35:17;;;;;;;12.03;9.63;;;;;;;;;;4990237;28;20529;-96
2021/06/12 02:43:28;;;;;;;15.07;9.27;;;;;;;;;;5007034;23;20506;-96
2021/06/12 02:45:55;;;;;;;11.67;9.67;;;;;;;;;;4932437;29;20462;-96
2021/06/12 02:51:23;;;;;;;9.77;8.77;;;;;;;;;;4951123;29;20487;-96
2021/06/12 03:05:05;;;;;;;11.03;9.67;;;;;;;;;;4933070;29;20427;-96
2021/06/12 03:07:41;;;;;;;11.87;8.57;;;;;;;;;;4956272;29;20523;-96
2021/06/12 03:10:17;;;;;;;9.00;7.97;;;;;;;;;;4938809;29;20491;-96
2021/06/12 03:13:06;;;;;;;14.03;9.10;;;;;;;;;;4952693;29;20447;-96
2021/06/12 03:18:19;;;;;;;10.80;9.70;;;;;;;;;;4953735;29;20443;-96
2021/06/12 03:20:54;;;;;;;10.03;8.90;;;;;;;;;;4956981;29;20451;-96
2021/06/12 03:23:37;;;;;;;12.17;8.50;;;;;;;;;;5167124;23;20529;-96
2021/06/12 03:26:05;;;;;;;12.70;8.57;;;;;;;;;;4969126;28;20446;-96
2021/06/12 03:28:32;;;;;;;9.90;8.90;;;;;;;;;;4975840;29;20457;-96
2021/06/12 03:31:02;;;;;;;12.50;9.37;;;;;;;;;;4978853;29;20482;-96
2021/06/12 03:54:25;;;;;;;12.80;10.47;;;;;;;;;;4987551;28;20505;-96
2021/06/12 03:56:52;;;;;;;11.60;10.13;;;;;;;;;;4994201;28;20450;-96
2021/06/12 03:59:18;;;;;;;14.23;10.70;;;;;;;;;;4995850;28;20553;-96
2021/06/12 04:01:47;;;;;;;12.43;11.03;;;;;;;;;;4995123;28;20477;-96
2021/06/12 04:52:01;;;;;;;11.37;9.63;;;;;;;;;;5812609;23;20519;-96
2021/06/12 05:08:20;;;;;;;12.13;10.37;;;;;;;;;;5747386;23;20877;-96
2021/06/12 05:11:10;;;;;;;13.60;9.40;;;;;;;;;;5847967;23;20686;-96
2021/06/12 05:29:14;;;;;;;18.47;11.20;;;;;;;;;;4848510;23;20853;-96
2021/06/12 05:31:40;;;;;;;12.40;10.50;;;;;;;;;;4972965;28;20516;-95
2021/06/12 05:34:06;;;;;;;12.13;10.77;;;;;;;;;;4989033;28;20448;-96
2021/06/12 05:36:32;;;;;;;12.00;10.20;;;;;;;;;;4990088;28;20533;-95
2021/06/12 05:39:00;;;;;;;15.13;12.50;;;;;;;;;;4983890;28;20450;-96
2021/06/12 05:41:28;;;;;;;12.67;11.00;;;;;;;;;;4987945;28;20465;-96
2021/06/12 05:44:03;;;;;;;13.43;11.80;;;;;;;;;;4989061;28;20471;-96
2021/06/12 05:46:31;;;;;;;15.23;11.40;;;;;;;;;;4989561;28;20454;-96
2021/06/12 05:49:02;;;;;;;14.03;11.23;;;;;;;;;;4992112;28;20543;-96
2021/06/12 05:51:37;;;;;;;11.63;10.43;;;;;;;;;;4990460;28;20482;-96
2021/06/12 05:54:03;;;;;;;16.10;11.90;;;;;;;;;;4985642;28;20449;-95
2021/06/12 05:59:39;;;;;;;16.50;11.97;;;;;;;;;;5073094;23;20502;-96
2021/06/12 06:02:08;;;;;;;13.70;11.27;;;;;;;;;;4979594;28;20524;-96
2021/06/12 06:10:15;;;;;;;18.23;11.50;;;;;;;;;;5585421;23;20493;-95
2021/06/12 06:23:17;;;;;;;14.67;11.50;;;;;;;;;;5420706;23;20514;-96
2021/06/12 07:03:13;;;;;;;12.13;9.20;;;;;;;;;;2690249;23;20520;-96
2021/06/12 07:10:51;;;;;;;15.03;12.13;;;;;;;;;;5212262;23;21242;-96
2021/06/12 07:13:22;;;;;;;13.20;11.90;;;;;;;;;;5237894;23;20569;-95
2021/06/12 07:16:02;;;;;;;12.50;11.27;;;;;;;;;;5028005;23;20520;-96
2021/06/12 07:23:57;;;;;;;10.37;9.37;;;;;;;;;;4992945;23;20485;-96
2021/06/12 07:31:35;;;;;;;11.93;10.67;;;;;;;;;;5590660;23;20493;-96
2021/06/12 07:36:47;;;;;;;9.73;8.30;;;;;;;;;;5013496;23;20449;-96
2021/06/12 07:39:31;;;;;;;10.50;9.50;;;;;;;;;;5178219;23;20483;-96
2021/06/12 07:56:11;;;;;;;11.80;9.80;;;;;;;;;;4976250;28;20516;-96
2021/06/12 09:00:52;;;;;;;7.73;7.10;;;;;;;;;;4964618;23;20769;-96
2021/06/12 09:03:41;;;;;;;7.70;7.00;;;;;;;;;;5232778;23;20496;-96
2021/06/12 09:06:07;;;;;;;7.70;7.00;;;;;;;;;;5068529;23;21582;-93
2021/06/12 09:14:10;;;;;;;7.27;6.47;;;;;;;;;;4959938;28;20495;-96
2021/06/12 09:16:40;;;;;;;10.70;6.43;;;;;;;;;;5027912;23;21009;-96
2021/06/12 09:19:11;;;;;;;6.40;5.90;;;;;;;;;;4982194;28;20481;-96
2021/06/12 09:21:42;;;;;;;6.40;5.80;;;;;;;;;;4987824;28;20453;-96
2021/06/12 09:24:24;;;;;;;6.63;6.13;;;;;;;;;;4979715;28;21059;-92
2021/06/12 09:26:51;;;;;;;7.07;6.47;;;;;;;;;;5035819;23;20601;-94
2021/06/12 09:29:34;;;;;;;7.00;6.30;;;;;;;;;;5033827;23;20532;-96
2021/06/12 09:37:45;;;;;;;6.55;6.05;;;;;;;;;;5365850;23;20458;31
2021/06/12 09:45:42;;;;;;;5.83;5.43;;;;;;;;;;5462380;23;20506;-94
2021/06/12 09:48:09;;;;;;;6.37;5.87;;;;;;;;;;5138411;23;20476;-94
2021/06/12 09:50:35;;;;;;;5.87;5.37;;;;;;;;;;5012585;23;20516;-95
2021/06/12 09:53:10;;;;;;;5.53;5.13;;;;;;;;;;4951456;28;20455;-92
2021/06/12 09:56:06;;;;;;;6.73;5.93;;;;;;;;;;5119833;23;22181;-96
2021/06/12 09:58:32;;;;;;;5.90;5.23;;;;;;;;;;5245196;23;20492;-95
2021/06/12 10:01:12;;;;;;;5.37;5.00;;;;;;;;;;4956709;29;20450;-95
2021/06/12 10:03:48;;;;;;;6.00;5.57;;;;;;;;;;4955763;29;20527;-96
2021/06/12 10:06:17;;;;;;;6.00;5.50;;;;;;;;;;4951503;28;20473;-91
2021/06/12 10:08:45;;;;;;;5.23;4.83;;;;;;;;;;5130308;23;20860;-94
2021/06/12 10:11:12;;;;;;;5.60;5.20;;;;;;;;;;4962924;28;20498;-93
2021/06/12 10:13:38;;;;;;;5.27;4.90;;;;;;;;;;4968741;28;20445;-95
2021/06/12 10:19:47;;;;;;;7.20;5.43;;;;;;;;;;5119176;23;20515;-95
2021/06/12 10:22:15;;;;;;;6.43;4.90;;;;;;;;;;4970775;28;20458;-94
2021/06/12 10:24:41;;;;;;;5.53;5.13;;;;;;;;;;4962960;28;20478;-94
2021/06/12 10:27:11;;;;;;;5.13;4.73;;;;;;;;;;4968976;28;20461;-95
2021/06/12 10:29:38;;;;;;;6.30;5.13;;;;;;;;;;4970521;28;20447;-94
2021/06/12 10:37:17;;;;;;;5.63;5.17;;;;;;;;;;5074904;23;20493;-94
2021/06/12 10:39:55;;;;;;;5.07;4.67;;;;;;;;;;5062608;23;20563;-95
2021/06/12 10:42:23;;;;;;;5.50;5.10;;;;;;;;;;4968321;28;20467;-95
2021/06/12 10:44:54;;;;;;;5.37;4.87;;;;;;;;;;4965435;28;20455;-95
2021/06/12 10:47:41;;;;;;;5.07;4.67;;;;;;;;;;4966175;28;20458;-96
2021/06/12 10:50:29;;;;;;;5.40;4.43;;;;;;;;;;4968364;28;20446;-95
2021/06/12 10:55:54;;;;;;;4.43;4.13;;;;;;;;;;6074664;23;21161;31
2021/06/12 10:58:41;;;;;;;4.93;4.60;;;;;;;;;;5307578;23;20486;-96
2021/06/12 11:03:50;;;;;;;4.60;4.30;;;;;;;;;;5081766;23;20488;-95
2021/06/12 11:06:46;;;;;;;4.60;4.30;;;;;;;;;;4970263;28;20445;-95
2021/06/12 11:09:42;;;;;;;5.40;4.90;;;;;;;;;;4964016;28;20478;-96
2021/06/12 11:15:14;;;;;;;4.07;3.77;;;;;;;;;;5051162;23;20498;-95
2021/06/12 11:20:30;;;;;;;4.43;4.13;;;;;;;;;;4987846;23;20498;-93
2021/06/12 11:23:01;;;;;;;4.60;4.27;;;;;;;;;;4999332;23;20513;-96
2021/06/12 11:25:48;;;;;;;3.63;3.43;;;;;;;;;;4968729;28;20454;-96
2021/06/12 11:31:40;;;;;;;;;;;;;;;;;;;;;
2021/06/12 11:34:14;;;;;;;3.70;3.47;;;;;;;;;;4963752;28;20494;-96
2021/06/12 11:36:41;;;;;;;4.27;3.97;;;;;;;;;;4968302;28;20462;-94
2021/06/12 11:39:09;;;;;;;4.20;3.90;;;;;;;;;;4949819;28;20480;-96
2021/06/12 11:50:25;;;;;;;6.00;4.93;;;;;;;;;;4825210;23;20486;-95
2021/06/12 11:59:00;;;;;;;4.37;3.97;;;;;;;;;;4996445;23;20477;-93
2021/06/12 12:01:43;;;;;;;4.77;4.37;;;;;;;;;;4992097;28;20481;-93
2021/06/12 12:04:27;;;;;;;4.43;4.13;;;;;;;;;;4993552;28;20475;-95
2021/06/12 12:07:00;;;;;;;4.37;3.97;;;;;;;;;;4969316;28;20445;-95
2021/06/12 12:09:37;;;;;;;4.63;4.30;;;;;;;;;;4995679;28;20448;-95
2021/06/12 12:12:04;;;;;;;4.40;4.10;;;;;;;;;;4981081;28;20540;-95
2021/06/12 12:14:56;;;;;;;4.20;4.00;;;;;;;;;;4985391;28;20442;-96
2021/06/12 12:20:23;;;;;;;3.77;3.47;;;;;;;;;;4011928;23;20278;-96
2021/06/12 12:22:54;;;;;;;4.80;3.43;;;;;;;;;;4978682;28;20463;-96
2021/06/12 12:25:33;;;;;;;3.77;3.43;;;;;;;;;;4979992;23;20577;-95
2021/06/12 12:33:55;;;;;;;3.50;3.20;;;;;;;;;;5022327;23;20508;-96
2021/06/12 12:39:06;;;;;;;4.70;4.40;;;;;;;;;;4996653;28;20466;-95
2021/06/12 12:41:35;;;;;;;4.23;3.93;;;;;;;;;;4992469;28;20466;-96
2021/06/12 12:44:35;;;;;;;10.53;4.63;;;;;;;;;;4984585;28;20472;-95
2021/06/12 12:47:10;;;;;;;6.67;4.90;;;;;;;;;;5076648;23;20481;-96
2021/06/12 12:49:40;;;;;;;6.70;6.10;;;;;;;;;;4950279;29;20483;-96
2021/06/12 12:52:23;;;;;;;5.90;5.40;;;;;;;;;;4945169;29;20475;-95
2021/06/12 13:03:02;;;;;;;8.37;7.47;;;;;;;;;;5146246;23;20491;-95
2021/06/12 14:09:04;;;;;;;7.60;7.00;;;;;;;;;;5077514;23;20452;-95
2021/06/12 14:11:37;;;;;;;6.50;6.00;;;;;;;;;;4974578;28;20465;-96
2021/06/12 14:14:12;;;;;;;7.10;6.60;;;;;;;;;;4973650;29;20448;-95
2021/06/12 14:16:43;;;;;;;6.90;6.40;;;;;;;;;;5010490;23;20492;-95
2021/06/12 14:24:32;;;;;;;6.50;6.10;;;;;;;;;;4947414;29;20469;-94
2021/06/12 14:30:05;;;;;;;6.70;6.10;;;;;;;;;;4993849;28;20477;-96
2021/06/12 14:33:01;;;;;;;6.07;5.60;;;;;;;;;;5092453;23;20496;-96
2021/06/12 14:38:15;;;;;;;6.10;5.70;;;;;;;;;;5444906;23;20502;-96
2021/06/12 14:40:41;;;;;;;6.60;6.00;;;;;;;;;;4973031;28;20475;-96
2021/06/12 14:43:07;;;;;;;6.27;5.77;;;;;;;;;;5184961;23;20484;-94
2021/06/12 14:45:52;;;;;;;6.20;5.70;;;;;;;;;;4968010;28;20429;-95
2021/06/12 14:48:27;;;;;;;6.33;5.90;;;;;;;;;;5085847;23;20481;-96
2021/06/12 14:56:34;;;;;;;6.47;5.27;;;;;;;;;;4970046;28;20433;-95
2021/06/12 15:04:45;;;;;;;5.13;4.73;;;;;;;;;;3332128;23;21638;-96
2021/06/12 15:07:20;;;;;;;5.13;4.73;;;;;;;;;;4971632;28;20531;-96
2021/06/12 15:12:31;;;;;;;5.03;4.63;;;;;;;;;;4956698;29;20468;-96
2021/06/12 15:15:03;;;;;;;5.20;4.23;;;;;;;;;;5212648;23;20499;-96
2021/06/12 15:20:49;;;;;;;4.70;4.30;;;;;;;;;;4957021;29;20472;-96
2021/06/12 15:23:15;;;;;;;4.20;3.90;;;;;;;;;;4959425;29;20463;-94
2021/06/12 15:25:44;;;;;;;4.00;3.70;;;;;;;;;;4957761;29;20432;-96
2021/06/12 15:28:29;;;;;;;5.40;3.80;;;;;;;;;;4961286;28;20535;-94
2021/06/12 15:33:30;;;;;;;4.70;4.37;;;;;;;;;;2754665;23;20497;-95
2021/06/12 15:35:59;;;;;;;4.50;4.20;;;;;;;;;;4975628;29;20433;-96
2021/06/12 15:41:00;;;;;;;4.77;4.27;;;;;;;;;;4976703;23;20499;-94
2021/06/12 15:43:37;;;;;;;4.83;4.50;;;;;;;;;;4956139;28;20470;-96
2021/06/12 15:46:13;;;;;;;5.00;4.60;;;;;;;;;;4994358;23;20502;-96
2021/06/12 15:48:40;;;;;;;4.50;4.10;;;;;;;;;;4954352;29;20810;-95
2021/06/12 15:51:08;;;;;;;6.23;4.80;;;;;;;;;;4954847;29;20562;-94
2021/06/12 15:53:39;;;;;;;4.97;4.57;;;;;;;;;;4959374;28;20491;-95
2021/06/12 15:56:11;;;;;;;6.87;4.60;;;;;;;;;;4952371;29;20455;-96
2021/06/12 15:58:41;;;;;;;5.30;4.90;;;;;;;;;;4965015;28;20443;-95
2021/06/12 16:03:44;;;;;;;5.40;5.00;;;;;;;;;;4987285;23;20502;-96
2021/06/12 16:06:19;;;;;;;4.37;4.07;;;;;;;;;;4971258;29;20443;-93
2021/06/12 16:08:45;;;;;;;4.57;4.17;;;;;;;;;;4963865;28;20434;-94
2021/06/12 16:11:12;;;;;;;4.10;3.80;;;;;;;;;;4968184;29;20467;-96
2021/06/12 16:13:48;;;;;;;4.70;4.37;;;;;;;;;;4959691;28;20447;-96
2021/06/12 16:16:15;;;;;;;4.53;4.10;;;;;;;;;;4957997;29;20442;-95
2021/06/12 16:18:44;;;;;;;4.90;4.50;;;;;;;;;;4964388;28;20475;-96
2021/06/12 16:21:12;;;;;;;4.60;4.30;;;;;;;;;;4976843;23;20502;-96
2021/06/12 16:23:38;;;;;;;5.70;4.80;;;;;;;;;;5045538;23;20501;-94
2021/06/12 16:26:08;;;;;;;4.50;4.10;;;;;;;;;;4995281;28;20430;-96
2021/06/12 16:28:44;;;;;;;4.30;3.97;;;;;;;;;;4957236;28;20467;-96
2021/06/12 16:31:16;;;;;;;4.60;4.20;;;;;;;;;;5016509;23;20561;-96
2021/06/12 16:33:46;;;;;;;5.10;4.30;;;;;;;;;;5154212;23;21293;-96
2021/06/12 16:36:37;;;;;;;4.50;4.10;;;;;;;;;;4976224;28;20459;-96
2021/06/12 16:39:04;;;;;;;7.97;5.13;;;;;;;;;;5007402;23;20527;-94
2021/06/12 16:41:32;;;;;;;8.43;4.40;;;;;;;;;;4971820;28;20502;-94
2021/06/12 16:49:20;;;;;;;4.50;4.17;;;;;;;;;;4990736;28;20450;-96
2021/06/12 16:51:46;;;;;;;4.83;4.43;;;;;;;;;;4990501;28;20517;-95
2021/06/12 16:54:33;;;;;;;4.33;4.03;;;;;;;;;;4989152;28;20461;-93
2021/06/12 16:57:13;;;;;;;5.10;4.47;;;;;;;;;;4984278;28;20433;-96
2021/06/12 16:59:49;;;;;;;7.07;4.80;;;;;;;;;;4992925;28;20490;-96
2021/06/12 17:10:13;;;;;;;5.53;4.90;;;;;;;;;;5139176;23;20521;-95
2021/06/12 17:12:41;;;;;;;5.10;4.57;;;;;;;;;;4968511;28;20505;-96
2021/06/12 17:20:15;;;;;;;4.93;4.53;;;;;;;;;;5295943;23;20449;-96
2021/06/12 17:25:25;;;;;;;6.73;4.40;;;;;;;;;;2573644;23;20535;-96
2021/06/12 17:27:51;;;;;;;5.30;4.80;;;;;;;;;;4963039;28;20452;-95
2021/06/12 17:30:21;;;;;;;5.37;4.93;;;;;;;;;;5116868;23;20498;-95
2021/06/12 17:33:09;;;;;;;5.87;4.60;;;;;;;;;;5156447;23;21674;-96
2021/06/12 17:38:37;;;;;;;5.90;5.33;;;;;;;;;;5050949;23;20499;-96
2021/06/12 17:41:12;;;;;;;5.40;4.87;;;;;;;;;;4958307;28;20445;-96
2021/06/12 17:43:42;;;;;;;5.90;5.30;;;;;;;;;;4974140;28;20458;-95
2021/06/12 17:48:48;;;;;;;6.27;5.67;;;;;;;;;;4968413;28;20490;-94
2021/06/12 17:53:50;;;;;;;5.33;4.80;;;;;;;;;;4269808;23;22043;-96
2021/06/12 17:56:20;;;;;;;5.87;5.37;;;;;;;;;;4940068;29;20579;-96
2021/06/12 18:15:40;;;;;;;6.20;5.43;;;;;;;;;;4964794;28;20530;-93
2021/06/12 18:18:08;;;;;;;7.63;6.50;;;;;;;;;;4952375;29;20433;-96
2021/06/12 18:20:35;;;;;;;6.27;5.67;;;;;;;;;;4956187;29;20466;-96
2021/06/12 18:23:02;;;;;;;8.10;5.80;;;;;;;;;;4949368;29;20455;-96
2021/06/12 18:25:31;;;;;;;6.30;5.77;;;;;;;;;;4946838;29;20492;-96
2021/06/12 18:46:32;;;;;;;5.50;5.00;;;;;;;;;;5379358;23;20508;-96
2021/06/12 18:48:58;;;;;;;7.83;6.13;;;;;;;;;;4966153;28;20490;-96
2021/06/12 19:02:19;;;;;;;8.37;7.50;;;;;;;;;;5097026;23;20498;-96
2021/06/12 19:10:06;;;;;;;8.03;6.20;;;;;;;;;;4997181;23;20528;-96
2021/06/12 19:15:38;;;;;;;8.37;6.37;;;;;;;;;;5928126;23;21164;-96
2021/06/12 19:18:08;;;;;;;6.73;6.13;;;;;;;;;;4979249;23;20502;-96
2021/06/12 19:20:36;;;;;;;6.80;6.13;;;;;;;;;;4963093;28;20495;-96
2021/06/12 19:23:04;;;;;;;8.03;7.23;;;;;;;;;;4962603;28;20534;-96
2021/06/12 19:25:30;;;;;;;7.97;7.27;;;;;;;;;;4969723;28;20459;-96
2021/06/12 19:27:56;;;;;;;11.83;8.10;;;;;;;;;;4969145;28;20443;-96
2021/06/12 19:30:23;;;;;;;8.67;7.00;;;;;;;;;;4964069;28;20470;-95
2021/06/12 19:32:49;;;;;;;7.00;6.40;;;;;;;;;;4964294;28;20516;-96
2021/06/12 19:35:19;;;;;;;8.50;7.70;;;;;;;;;;4966447;28;20481;-96
2021/06/12 19:37:56;;;;;;;8.87;7.97;;;;;;;;;;4971537;28;20462;-96
2021/06/12 19:40:23;;;;;;;12.30;7.27;;;;;;;;;;4969167;28;20548;-96
2021/06/12 19:42:54;;;;;;;8.90;6.67;;;;;;;;;;4966473;28;20450;-96
2021/06/12 20:12:06;;;;;;;7.93;7.13;;;;;;;;;;4973307;28;20502;-96
2021/06/12 20:14:33;;;;;;;9.83;7.40;;;;;;;;;;4972006;28;20537;-96
2021/06/12 20:17:03;;;;;;;8.17;7.00;;;;;;;;;;4951930;29;20474;-96
2021/06/12 20:19:29;;;;;;;10.40;7.70;;;;;;;;;;5043307;23;20533;-96
2021/06/12 20:24:32;;;;;;;8.60;7.80;;;;;;;;;;5145695;23;20506;-96
2021/06/12 20:53:08;;;;;;;7.77;6.87;;;;;;;;;;4997213;28;20568;-96
2021/06/12 20:55:37;;;;;;;8.63;6.93;;;;;;;;;;4978406;28;20453;-96
2021/06/12 21:09:04;;;;;;;7.43;6.73;;;;;;;;;;5036747;23;20502;-96
2021/06/12 21:11:33;;;;;;;8.03;6.60;;;;;;;;;;4962939;28;20493;-96
2021/06/12 21:13:59;;;;;;;7.57;6.87;;;;;;;;;;4960274;29;20454;-95
2021/06/12 21:16:30;;;;;;;7.60;6.83;;;;;;;;;;4959582;28;20447;-96
2021/06/12 21:18:56;;;;;;;7.10;6.50;;;;;;;;;;4964849;29;20458;-96
2021/06/12 21:21:22;;;;;;;7.33;6.63;;;;;;;;;;4950629;29;20467;-94
2021/06/12 21:23:49;;;;;;;9.50;7.50;;;;;;;;;;4967995;28;20466;-96
2021/06/12 21:26:15;;;;;;;7.70;7.00;;;;;;;;;;4955656;29;20458;-94
2021/06/12 21:28:42;;;;;;;7.30;6.60;;;;;;;;;;4959983;28;20454;-94
2021/06/12 21:31:09;;;;;;;8.60;7.23;;;;;;;;;;4962587;29;20461;-95
2021/06/12 21:33:37;;;;;;;8.80;7.90;;;;;;;;;;4948476;28;20448;-95
2021/06/12 21:38:37;;;;;;;8.47;7.47;;;;;;;;;;4962269;28;20530;-96
2021/06/12 21:41:05;;;;;;;7.53;6.30;;;;;;;;;;4961500;29;20458;-95
2021/06/12 21:43:31;;;;;;;7.70;7.00;;;;;;;;;;4954295;28;20455;-96
2021/06/12 21:45:59;;;;;;;9.20;8.30;;;;;;;;;;4959450;29;20535;-96
2021/06/12 21:48:25;;;;;;;7.57;6.20;;;;;;;;;;5072057;23;20485;-96
2021/06/12 21:50:56;;;;;;;7.83;6.47;;;;;;;;;;4975145;28;20441;-95
2021/06/12 21:53:22;;;;;;;8.73;6.73;;;;;;;;;;4972478;28;20489;-96
2021/06/12 21:55:48;;;;;;;6.30;5.70;;;;;;;;;;4981747;28;20442;-96
2021/06/12 21:58:15;;;;;;;7.63;6.83;;;;;;;;;;4976824;28;20465;-95
2021/06/12 22:01:04;;;;;;;7.13;6.50;;;;;;;;;;4972815;28;20464;-95
2021/06/12 22:03:31;;;;;;;8.33;7.50;;;;;;;;;;4975045;28;20493;-95
2021/06/12 22:05:58;;;;;;;8.10;6.53;;;;;;;;;;4967903;28;20452;-95
2021/06/12 22:08:24;;;;;;;7.87;6.93;;;;;;;;;;4981333;28;20446;-95
2021/06/12 22:10:50;;;;;;;9.13;7.07;;;;;;;;;;4966467;28;20482;-96
2021/06/12 22:13:16;;;;;;;8.20;6.97;;;;;;;;;;4976454;28;21043;-96
2021/06/12 22:15:42;;;;;;;8.10;7.17;;;;;;;;;;4967300;28;20463;-95
2021/06/12 22:18:11;;;;;;;7.90;6.90;;;;;;;;;;4984247;28;20473;-95
2021/06/12 22:20:56;;;;;;;7.53;6.73;;;;;;;;;;4973949;28;20450;-96
2021/06/12 22:23:41;;;;;;;8.27;7.57;;;;;;;;;;4977820;28;20505;-94
2021/06/12 22:26:10;;;;;;;6.97;6.37;;;;;;;;;;4977074;28;20530;-96
2021/06/12 22:28:36;;;;;;;8.17;7.40;;;;;;;;;;4982806;28;20457;-96
2021/06/12 22:31:02;;;;;;;7.00;5.80;;;;;;;;;;4982623;28;20454;-96
2021/06/12 22:33:30;;;;;;;10.67;6.93;;;;;;;;;;4978867;28;20498;-96
2021/06/12 22:35:56;;;;;;;8.27;7.30;;;;;;;;;;4972796;28;20447;-94
2021/06/12 22:38:22;;;;;;;8.47;7.40;;;;;;;;;;4967290;28;20446;-96
2021/06/12 22:40:48;;;;;;;8.73;6.20;;;;;;;;;;4976918;28;20458;-95
2021/06/12 22:43:14;;;;;;;9.57;7.50;;;;;;;;;;4965853;28;20504;-96
2021/06/12 22:45:41;;;;;;;9.80;7.70;;;;;;;;;;4971224;28;20462;-96
2021/06/12 22:48:10;;;;;;;9.73;8.00;;;;;;;;;;4972484;28;20466;-95
2021/06/12 22:50:37;;;;;;;9.23;8.20;;;;;;;;;;4981514;28;20452;-95
2021/06/12 22:53:04;;;;;;;7.80;6.70;;;;;;;;;;4981927;28;20481;-96
2021/06/12 22:55:30;;;;;;;7.80;7.00;;;;;;;;;;4970221;28;20477;-95
2021/06/12 22:57:56;;;;;;;8.03;7.23;;;;;;;;;;4973988;28;20455;-95
2021/06/12 23:00:23;;;;;;;7.50;6.80;;;;;;;;;;4971202;28;20470;-93
2021/06/12 23:02:49;;;;;;;8.90;8.00;;;;;;;;;;4981791;28;20469;-95
2021/06/12 23:05:16;;;;;;;10.33;7.73;;;;;;;;;;4974159;28;20455;-95
2021/06/12 23:07:43;;;;;;;8.57;7.70;;;;;;;;;;4981302;28;20464;-95
2021/06/12 23:10:12;;;;;;;7.57;6.87;;;;;;;;;;4983008;28;20476;-95
2021/06/12 23:12:39;;;;;;;9.00;7.40;;;;;;;;;;4981411;28;20492;-95
2021/06/12 23:15:05;;;;;;;9.50;8.57;;;;;;;;;;4975441;28;20508;-95
2021/06/12 23:17:31;;;;;;;9.83;8.73;;;;;;;;;;4978413;28;20641;-96
2021/06/12 23:19:57;;;;;;;12.60;7.80;;;;;;;;;;4962914;28;20465;-96
2021/06/12 23:22:26;;;;;;;8.37;7.53;;;;;;;;;;4987721;28;20453;-96
2021/06/12 23:24:54;;;;;;;8.43;7.20;;;;;;;;;;4965798;28;20897;-96
2021/06/12 23:27:20;;;;;;;8.93;8.03;;;;;;;;;;4970698;28;20988;-96
2021/06/12 23:29:46;;;;;;;8.17;7.03;;;;;;;;;;4962816;28;20464;-96
2021/06/12 23:32:12;;;;;;;8.20;7.50;;;;;;;;;;4977083;28;20516;-96
2021/06/12 23:34:38;;;;;;;9.20;7.13;;;;;;;;;;4982370;28;20446;-96
2021/06/12 23:37:04;;;;;;;9.23;8.20;;;;;;;;;;4953545;28;20944;-94
2021/06/12 23:39:30;;;;;;;8.33;7.47;;;;;;;;;;4977777;28;20452;-96
2021/06/12 23:41:58;;;;;;;7.17;6.50;;;;;;;;;;4969925;28;20446;-95
2021/06/12 23:44:24;;;;;;;9.63;7.50;;;;;;;;;;4962110;28;20454;-96
2021/06/12 23:46:50;;;;;;;8.00;7.17;;;;;;;;;;4970502;28;20461;-94
2021/06/12 23:49:16;;;;;;;7.50;6.70;;;;;;;;;;4984531;28;20557;-96
2021/06/12 23:51:43;;;;;;;7.53;6.60;;;;;;;;;;4985406;28;20987;-96
2021/06/12 23:54:10;;;;;;;8.27;7.00;;;;;;;;;;4981107;28;20453;-96
2021/06/12 23:56:37;;;;;;;8.40;7.60;;;;;;;;;;4975511;28;20458;-96
2021/06/12 23:59:06;;;;;;;9.40;8.10;;;;;;;;;;4984304;28;20457;-96
